createdAt,value
2023-05-12T00:00:07.171Z,15.10
2023-05-12T00:02:35.414Z,15.10
2023-05-12T00:07:51.537Z,15.10
2023-05-12T00:10:19.784Z,15.00
2023-05-12T00:12:48.048Z,15.00
2023-05-12T00:15:15.857Z,15.20
2023-05-12T00:17:43.702Z,15.00
2023-05-12T00:20:13.047Z,15.20
2023-05-12T00:25:28.034Z,15.00
2023-05-12T00:27:56.065Z,15.00
2023-05-12T00:30:23.931Z,14.90
2023-05-12T00:32:51.779Z,14.90
2023-05-12T00:35:19.978Z,14.90
2023-05-12T00:37:47.828Z,14.90
2023-05-12T00:40:15.830Z,14.90
2023-05-12T00:42:43.653Z,14.90
2023-05-12T00:45:12.545Z,14.90
2023-05-12T00:47:40.664Z,14.90
2023-05-12T00:50:10.303Z,15.00
2023-05-12T00:52:38.093Z,15.00
2023-05-12T00:55:08.128Z,14.90
2023-05-12T00:57:35.843Z,15.10
2023-05-12T01:00:06.454Z,14.90
2023-05-12T01:02:35.021Z,15.00
2023-05-12T01:05:03.647Z,14.80
2023-05-12T01:07:33.360Z,14.90
2023-05-12T01:10:01.195Z,15.00
2023-05-12T01:12:31.591Z,14.90
2023-05-12T01:14:59.600Z,14.60
2023-05-12T01:17:32.574Z,14.90
2023-05-12T01:20:03.116Z,14.90
2023-05-12T01:22:31.548Z,15.00
2023-05-12T01:25:02.127Z,14.90
2023-05-12T01:27:31.170Z,14.90
2023-05-12T01:30:00.888Z,14.70
2023-05-12T01:32:29.700Z,14.90
2023-05-12T01:34:57.587Z,14.90
2023-05-12T01:37:26.042Z,14.90
2023-05-12T01:39:53.891Z,14.90
2023-05-12T01:42:21.665Z,14.90
2023-05-12T01:44:49.436Z,14.90
2023-05-12T01:47:17.279Z,14.90
2023-05-12T01:49:45.414Z,14.80
2023-05-12T01:52:13.203Z,14.80
2023-05-12T01:54:40.984Z,14.80
2023-05-12T01:57:08.769Z,14.80
2023-05-12T01:59:36.467Z,14.90
2023-05-12T02:02:04.924Z,14.90
2023-05-12T02:04:32.770Z,14.70
2023-05-12T02:07:01.185Z,14.90
2023-05-12T02:09:28.985Z,14.80
2023-05-12T02:11:57.295Z,14.80
2023-05-12T02:14:25.142Z,14.80
2023-05-12T02:16:53.403Z,14.90
2023-05-12T02:19:21.252Z,14.80
2023-05-12T02:21:49.358Z,14.70
2023-05-12T02:24:17.191Z,14.70
2023-05-12T02:26:45.475Z,15.10
2023-05-12T02:29:13.296Z,14.70
2023-05-12T02:31:41.775Z,14.70
2023-05-12T02:34:09.615Z,14.70
2023-05-12T02:36:37.465Z,14.70
2023-05-12T02:39:05.524Z,14.70
2023-05-12T02:41:33.536Z,14.70
2023-05-12T02:44:01.255Z,14.60
2023-05-12T02:46:29.202Z,14.60
2023-05-12T02:48:57.165Z,14.50
2023-05-12T02:51:24.965Z,14.50
2023-05-12T02:53:52.744Z,14.40
2023-05-12T02:56:21.729Z,14.60
2023-05-12T02:58:49.496Z,14.40
2023-05-12T03:01:17.300Z,14.60
2023-05-12T03:03:45.700Z,14.40
2023-05-12T03:06:13.751Z,14.50
2023-05-12T03:08:41.639Z,14.60
2023-05-12T03:11:09.758Z,14.50
2023-05-12T03:13:37.501Z,14.50
2023-05-12T03:16:06.461Z,14.60
2023-05-12T03:18:34.478Z,14.90
2023-05-12T03:21:02.958Z,14.60
2023-05-12T03:23:30.794Z,14.70
2023-05-12T03:25:58.790Z,14.70
2023-05-12T03:28:26.578Z,14.60
2023-05-12T03:33:41.392Z,14.60
2023-05-12T03:36:09.969Z,14.70
2023-05-12T03:38:37.749Z,14.70
2023-05-12T03:41:06.442Z,14.60
2023-05-12T03:43:35.282Z,14.50
2023-05-12T03:46:03.478Z,14.60
2023-05-12T03:48:31.330Z,14.60
2023-05-12T03:50:59.275Z,14.50
2023-05-12T03:53:27.006Z,14.50
2023-05-12T03:55:54.916Z,14.50
2023-05-12T03:58:23.752Z,14.40
2023-05-12T04:00:51.545Z,14.50
2023-05-12T04:03:19.461Z,14.50
2023-05-12T04:05:47.540Z,14.40
2023-05-12T04:08:15.346Z,14.70
2023-05-12T04:13:10.968Z,14.40
2023-05-12T04:15:39.617Z,14.30
2023-05-12T04:18:07.488Z,14.30
2023-05-12T04:20:35.780Z,14.30
2023-05-12T04:23:03.569Z,14.40
2023-05-12T04:25:31.451Z,14.40
2023-05-12T04:27:59.328Z,14.40
2023-05-12T04:30:27.186Z,14.40
2023-05-12T04:32:55.146Z,14.40
2023-05-12T04:35:22.966Z,14.40
2023-05-12T04:37:50.881Z,14.40
2023-05-12T04:40:19.279Z,14.40
2023-05-12T04:42:47.891Z,14.40
2023-05-12T04:45:15.833Z,14.30
2023-05-12T04:47:43.637Z,14.40
2023-05-12T04:50:12.545Z,14.30
2023-05-12T04:52:40.504Z,14.30
2023-05-12T04:55:09.879Z,14.80
2023-05-12T04:57:40.393Z,14.40
2023-05-12T05:00:10.578Z,14.50
2023-05-12T05:02:39.069Z,14.40
2023-05-12T05:05:08.666Z,14.50
2023-05-12T05:07:36.448Z,14.50
2023-05-12T05:10:06.142Z,14.50
2023-05-12T05:12:34.028Z,14.50
2023-05-12T05:15:01.761Z,14.50
2023-05-12T05:17:29.594Z,14.60
2023-05-12T05:19:59.566Z,14.50
2023-05-12T05:22:27.778Z,14.30
2023-05-12T05:24:55.985Z,14.40
2023-05-12T05:27:23.905Z,14.50
2023-05-12T05:29:51.942Z,14.50
2023-05-12T05:32:19.773Z,14.50
2023-05-12T05:34:47.582Z,14.50
2023-05-12T05:37:15.374Z,14.50
2023-05-12T05:42:32.385Z,14.50
2023-05-12T05:45:00.966Z,14.60
2023-05-12T05:47:31.075Z,14.60
2023-05-12T05:50:00.226Z,14.70
2023-05-12T05:52:28.764Z,14.70
2023-05-12T05:54:57.245Z,14.70
2023-05-12T05:57:27.171Z,14.70
2023-05-12T05:59:54.988Z,14.60
2023-05-12T06:02:23.179Z,14.70
2023-05-12T06:04:51.949Z,14.40
2023-05-12T06:07:22.096Z,14.90
2023-05-12T06:09:50.660Z,14.80
2023-05-12T06:12:19.318Z,14.90
2023-05-12T06:14:47.809Z,14.90
2023-05-12T06:17:16.355Z,14.90
2023-05-12T06:22:31.362Z,14.90
2023-05-12T06:24:59.945Z,15.00
2023-05-12T06:27:29.830Z,15.00
2023-05-12T06:29:58.206Z,15.10
2023-05-12T06:32:26.357Z,15.00
2023-05-12T06:34:54.847Z,15.10
2023-05-12T06:37:23.593Z,15.10
2023-05-12T06:39:51.596Z,15.00
2023-05-12T06:42:19.380Z,15.10
2023-05-12T06:44:47.202Z,15.10
2023-05-12T06:47:15.076Z,15.20
2023-05-12T06:49:43.332Z,15.20
2023-05-12T06:52:12.122Z,14.90
2023-05-12T06:54:39.887Z,15.30
2023-05-12T06:57:07.650Z,15.30
2023-05-12T06:59:35.499Z,15.30
2023-05-12T07:02:03.363Z,15.30
2023-05-12T07:04:31.228Z,15.40
2023-05-12T07:06:59.016Z,15.40
2023-05-12T07:09:26.811Z,15.40
2023-05-12T07:11:55.391Z,15.40
2023-05-12T07:14:23.276Z,15.50
2023-05-12T07:16:51.128Z,15.50
2023-05-12T07:19:18.938Z,15.10
2023-05-12T07:21:46.721Z,15.80
2023-05-12T07:24:15.949Z,15.60
2023-05-12T07:26:44.041Z,15.70
2023-05-12T07:29:13.811Z,15.60
2023-05-12T07:31:42.052Z,15.60
2023-05-12T07:34:10.249Z,15.60
2023-05-12T07:36:38.543Z,15.70
2023-05-12T07:39:06.332Z,15.70
2023-05-12T07:41:34.586Z,15.70
2023-05-12T07:44:02.883Z,15.70
2023-05-12T07:46:30.749Z,15.80
2023-05-12T07:48:58.579Z,15.80
2023-05-12T07:51:26.406Z,15.90
2023-05-12T07:53:55.872Z,15.80
2023-05-12T07:56:24.069Z,15.90
2023-05-12T07:58:52.046Z,15.90
2023-05-12T08:01:19.879Z,16.00
2023-05-12T08:03:48.013Z,16.10
2023-05-12T08:06:15.939Z,16.10
2023-05-12T08:08:43.761Z,16.00
2023-05-12T08:11:12.238Z,16.40
2023-05-12T08:13:40.147Z,16.10
2023-05-12T08:16:08.008Z,16.10
2023-05-12T08:18:36.199Z,16.20
2023-05-12T08:21:04.671Z,16.20
2023-05-12T08:23:32.630Z,16.20
2023-05-12T08:26:00.508Z,16.20
2023-05-12T08:28:28.385Z,16.20
2023-05-12T08:30:56.307Z,16.30
2023-05-12T08:33:24.964Z,16.10
2023-05-12T08:35:52.965Z,16.80
2023-05-12T08:38:21.382Z,17.10
2023-05-12T08:43:49.594Z,17.80
2023-05-12T08:46:17.684Z,18.00
2023-05-12T08:48:46.812Z,18.10
2023-05-12T08:51:15.504Z,18.30
2023-05-12T08:58:44.661Z,18.40
2023-05-12T09:01:14.061Z,18.50
2023-05-12T09:03:42.259Z,18.50
2023-05-12T09:06:11.358Z,18.70
2023-05-12T09:08:40.510Z,18.60
2023-05-12T09:14:00.692Z,18.60
2023-05-12T09:16:32.477Z,18.20
2023-05-12T09:19:01.524Z,17.90
2023-05-12T09:21:29.823Z,17.70
2023-05-12T09:23:59.093Z,17.50
2023-05-12T09:26:28.095Z,17.40
2023-05-12T09:29:04.160Z,17.30
2023-05-12T09:31:32.015Z,17.10
2023-05-12T09:34:01.600Z,17.00
2023-05-12T09:36:29.640Z,17.20
2023-05-12T09:39:03.892Z,17.20
2023-05-12T09:41:34.893Z,17.20
2023-05-12T09:44:03.581Z,17.30
2023-05-12T09:46:31.830Z,17.30
2023-05-12T09:49:00.386Z,17.30
2023-05-12T09:51:29.865Z,17.30
2023-05-12T09:53:58.200Z,17.40
2023-05-12T09:56:28.780Z,17.50
2023-05-12T09:58:57.777Z,17.50
2023-05-12T10:01:26.603Z,17.50
2023-05-12T10:03:55.681Z,17.50
2023-05-12T10:06:27.690Z,17.60
2023-05-12T10:09:14.963Z,17.60
2023-05-12T10:11:44.047Z,17.70
2023-05-12T10:14:12.768Z,17.80
2023-05-12T10:16:41.384Z,17.90
2023-05-12T10:19:10.198Z,18.30
2023-05-12T10:21:39.011Z,18.40
2023-05-12T10:24:07.544Z,18.50
2023-05-12T10:26:39.059Z,18.80
2023-05-12T10:29:07.615Z,18.90
2023-05-12T10:31:36.186Z,19.10
2023-05-12T10:34:05.256Z,19.10
2023-05-12T10:36:45.632Z,18.60
2023-05-12T10:39:15.282Z,19.00
2023-05-12T10:41:43.341Z,19.10
2023-05-12T10:44:11.450Z,19.10
2023-05-12T10:46:39.376Z,19.10
2023-05-12T10:49:09.706Z,19.20
2023-05-12T10:51:48.536Z,19.10
2023-05-12T10:54:21.368Z,19.10
2023-05-12T10:56:49.566Z,19.30
2023-05-12T10:59:20.277Z,19.30
2023-05-12T11:02:01.853Z,19.50
2023-05-12T11:07:30.511Z,19.20
2023-05-12T11:10:01.445Z,19.50
2023-05-12T11:12:33.170Z,19.50
2023-05-12T11:15:02.753Z,19.40
2023-05-12T11:17:31.427Z,19.30
2023-05-12T11:20:00.114Z,19.50
2023-05-12T11:22:28.177Z,19.60
2023-05-12T11:24:56.186Z,19.60
2023-05-12T11:27:24.492Z,19.60
2023-05-12T11:30:03.745Z,19.60
2023-05-12T11:32:31.645Z,19.60
2023-05-12T11:35:12.693Z,21.10
2023-05-12T11:37:42.106Z,19.80
2023-05-12T11:40:15.767Z,19.80
2023-05-12T11:42:47.676Z,20.00
2023-05-12T11:45:26.342Z,20.00
2023-05-12T11:48:06.828Z,19.90
2023-05-12T11:50:36.916Z,20.10
2023-05-12T11:53:04.825Z,20.20
2023-05-12T11:58:25.975Z,20.40
2023-05-12T12:00:54.508Z,20.30
2023-05-12T12:03:23.101Z,20.70
2023-05-12T12:06:01.852Z,20.30
2023-05-12T12:08:30.317Z,20.60
2023-05-12T12:10:58.359Z,20.60
2023-05-12T12:13:26.889Z,20.60
2023-05-12T12:15:55.473Z,20.40
2023-05-12T12:18:23.601Z,20.70
2023-05-12T12:20:51.432Z,20.70
2023-05-12T12:23:19.294Z,20.90
2023-05-12T12:25:47.098Z,20.70
2023-05-12T12:28:15.303Z,20.70
2023-05-12T12:30:43.101Z,20.80
2023-05-12T12:33:11.236Z,20.90
2023-05-12T12:35:39.216Z,20.80
2023-05-12T12:38:08.218Z,21.10
2023-05-12T12:40:36.156Z,21.20
2023-05-12T12:43:03.981Z,21.20
2023-05-12T12:45:31.846Z,21.20
2023-05-12T12:48:00.002Z,21.00
2023-05-12T12:50:28.541Z,21.00
2023-05-12T12:52:56.927Z,21.00
2023-05-12T12:55:25.319Z,20.80
2023-05-12T12:57:53.152Z,20.80
2023-05-12T13:00:23.105Z,20.60
2023-05-12T13:02:51.170Z,20.60
2023-05-12T13:05:19.682Z,20.40
2023-05-12T13:07:47.731Z,20.40
2023-05-12T13:10:16.031Z,20.40
2023-05-12T13:12:44.286Z,20.40
2023-05-12T13:15:13.449Z,20.60
2023-05-12T13:17:41.391Z,20.30
2023-05-12T13:20:13.169Z,20.30
2023-05-12T13:22:41.499Z,20.00
2023-05-12T13:25:10.996Z,20.10
2023-05-12T13:27:39.419Z,20.30
2023-05-12T13:30:12.121Z,20.30
2023-05-12T13:32:41.684Z,20.30
2023-05-12T13:35:10.565Z,20.40
2023-05-12T13:37:38.938Z,20.40
2023-05-12T13:42:56.516Z,20.60
2023-05-12T13:45:24.828Z,21.10
2023-05-12T13:47:52.813Z,20.90
2023-05-12T13:50:20.848Z,20.80
2023-05-12T13:52:48.813Z,20.90
2023-05-12T13:55:20.894Z,20.70
2023-05-12T13:57:49.833Z,20.60
2023-05-12T14:03:09.489Z,20.50
2023-05-12T14:05:37.572Z,20.60
2023-05-12T14:08:05.966Z,20.60
2023-05-12T14:10:34.644Z,20.70
2023-05-12T14:13:02.428Z,20.70
2023-05-12T14:15:44.359Z,21.00
2023-05-12T14:18:15.659Z,20.70
2023-05-12T14:20:43.558Z,20.90
2023-05-12T14:23:11.483Z,21.10
2023-05-12T14:25:39.493Z,21.10
2023-05-12T14:28:07.364Z,21.10
2023-05-12T14:30:36.559Z,21.10
2023-05-12T14:33:04.804Z,21.00
2023-05-12T14:35:32.774Z,20.70
2023-05-12T14:38:00.628Z,21.00
2023-05-12T14:40:28.532Z,20.90
2023-05-12T14:42:56.471Z,20.90
2023-05-12T14:45:25.922Z,20.90
2023-05-12T14:47:53.848Z,21.10
2023-05-12T14:50:21.918Z,21.20
2023-05-12T14:52:49.886Z,21.00
2023-05-12T14:55:17.756Z,20.80
2023-05-12T14:57:46.564Z,20.90
2023-05-12T15:00:16.438Z,20.70
2023-05-12T15:02:45.033Z,20.60
2023-05-12T15:05:14.556Z,20.60
2023-05-12T15:07:42.419Z,20.50
2023-05-12T15:10:11.617Z,20.50
2023-05-12T15:12:39.360Z,20.50
2023-05-12T15:15:10.990Z,20.50
2023-05-12T15:17:38.908Z,20.50
2023-05-12T15:20:09.791Z,20.50
2023-05-12T15:22:37.720Z,20.60
2023-05-12T15:25:08.146Z,20.90
2023-05-12T15:27:35.990Z,21.10
2023-05-12T15:30:06.419Z,21.20
2023-05-12T15:32:34.246Z,21.70
2023-05-12T15:35:02.226Z,21.60
2023-05-12T15:37:30.168Z,21.80
2023-05-12T15:39:57.960Z,22.00
2023-05-12T15:42:30.084Z,22.10
2023-05-12T15:45:00.954Z,22.10
2023-05-12T15:47:28.935Z,22.30
2023-05-12T15:49:56.674Z,22.60
2023-05-12T15:52:24.440Z,22.70
2023-05-12T15:54:52.202Z,22.80
2023-05-12T15:57:20.042Z,22.80
2023-05-12T16:02:34.503Z,23.10
2023-05-12T16:05:02.420Z,23.20
2023-05-12T16:07:30.487Z,22.80
2023-05-12T16:09:58.703Z,22.90
2023-05-12T16:12:26.513Z,23.00
2023-05-12T16:14:54.233Z,22.70
2023-05-12T16:17:22.371Z,22.80
2023-05-12T16:19:52.393Z,22.90
2023-05-12T16:22:20.227Z,22.90
2023-05-12T16:24:48.694Z,23.00
2023-05-12T16:27:16.481Z,23.00
2023-05-12T16:29:44.879Z,23.10
2023-05-12T16:32:12.950Z,23.10
2023-05-12T16:34:40.915Z,23.10
2023-05-12T16:37:08.953Z,23.10
2023-05-12T16:39:37.051Z,22.70
2023-05-12T16:42:06.400Z,23.20
2023-05-12T16:44:34.765Z,23.40
2023-05-12T16:47:02.546Z,23.50
2023-05-12T16:49:30.261Z,23.50
2023-05-12T16:51:58.208Z,23.30
2023-05-12T16:57:14.637Z,23.00
2023-05-12T16:59:42.359Z,22.90
2023-05-12T17:02:10.461Z,22.90
2023-05-12T17:04:38.264Z,22.90
2023-05-12T17:07:06.555Z,23.20
2023-05-12T17:09:34.567Z,23.30
2023-05-12T17:12:03.724Z,23.10
2023-05-12T17:14:31.514Z,23.30
2023-05-12T17:16:59.424Z,23.40
2023-05-12T17:19:27.269Z,23.40
2023-05-12T17:21:55.213Z,23.60
2023-05-12T17:24:23.093Z,23.50
2023-05-12T17:26:51.058Z,23.40
2023-05-12T17:29:19.759Z,23.50
2023-05-12T17:31:47.675Z,23.80
2023-05-12T17:34:15.893Z,23.90
2023-05-12T17:36:43.718Z,24.10
2023-05-12T17:39:15.076Z,24.00
2023-05-12T17:41:43.405Z,24.30
2023-05-12T17:47:00.072Z,24.50
2023-05-12T17:49:27.934Z,24.40
2023-05-12T17:51:55.757Z,24.90
2023-05-12T17:54:23.494Z,24.50
2023-05-12T17:56:51.452Z,24.90
2023-05-12T17:59:19.313Z,25.10
2023-05-12T18:01:47.095Z,25.20
2023-05-12T18:04:14.884Z,25.80
2023-05-12T18:06:43.144Z,26.10
2023-05-12T18:09:12.989Z,26.30
2023-05-12T18:11:40.762Z,26.40
2023-05-12T18:14:08.677Z,26.60
2023-05-12T18:16:36.566Z,26.80
2023-05-12T18:19:04.600Z,26.40
2023-05-12T18:21:32.763Z,26.60
2023-05-12T18:24:01.482Z,26.80
2023-05-12T18:26:29.405Z,26.70
2023-05-12T18:28:57.453Z,26.10
2023-05-12T18:31:26.188Z,25.70
2023-05-12T18:33:54.129Z,24.80
2023-05-12T18:36:21.895Z,24.10
2023-05-12T18:38:49.662Z,23.60
2023-05-12T18:41:17.614Z,23.10
2023-05-12T18:43:45.420Z,22.70
2023-05-12T18:46:13.275Z,22.50
2023-05-12T18:48:41.165Z,22.40
2023-05-12T18:51:09.136Z,22.10
2023-05-12T18:53:36.910Z,21.90
2023-05-12T18:56:05.458Z,21.70
2023-05-12T18:58:33.196Z,21.60
2023-05-12T19:01:01.494Z,21.50
2023-05-12T19:03:30.450Z,21.00
2023-05-12T19:05:58.412Z,21.20
2023-05-12T19:08:26.384Z,21.20
2023-05-12T19:10:54.201Z,21.20
2023-05-12T19:13:22.197Z,21.00
2023-05-12T19:15:50.059Z,20.90
2023-05-12T19:18:17.956Z,20.70
2023-05-12T19:20:45.728Z,20.80
2023-05-12T19:23:13.693Z,20.70
2023-05-12T19:25:42.919Z,20.20
2023-05-12T19:28:11.518Z,20.20
2023-05-12T19:30:39.409Z,20.20
2023-05-12T19:33:07.340Z,19.90
2023-05-12T19:35:35.526Z,19.80
2023-05-12T19:38:03.303Z,19.90
2023-05-12T19:40:31.977Z,19.70
2023-05-12T19:42:59.846Z,19.60
2023-05-12T19:45:28.385Z,19.60
2023-05-12T19:47:57.274Z,19.60
2023-05-12T19:50:25.259Z,19.50
2023-05-12T19:52:53.090Z,19.10
2023-05-12T19:55:21.280Z,19.40
2023-05-12T19:57:49.380Z,19.30
2023-05-12T20:00:18.826Z,19.20
2023-05-12T20:02:46.659Z,19.20
2023-05-12T20:05:14.958Z,19.10
2023-05-12T20:07:42.855Z,19.00
2023-05-12T20:10:11.820Z,19.00
2023-05-12T20:12:39.672Z,18.90
2023-05-12T20:15:09.584Z,18.90
2023-05-12T20:17:37.506Z,19.30
2023-05-12T20:20:07.587Z,18.70
2023-05-12T20:22:35.411Z,18.90
2023-05-12T20:25:04.191Z,18.90
2023-05-12T20:27:32.541Z,18.90
2023-05-12T20:30:00.702Z,18.90
2023-05-12T20:32:28.437Z,19.00
2023-05-12T20:34:56.396Z,18.90
2023-05-12T20:37:24.379Z,18.60
2023-05-12T20:39:53.263Z,19.00
2023-05-12T20:42:21.115Z,18.90
2023-05-12T20:47:36.651Z,18.80
2023-05-12T20:50:06.618Z,18.80
2023-05-12T20:52:37.003Z,18.80
2023-05-12T20:55:07.036Z,18.90
2023-05-12T20:57:35.147Z,18.90
2023-05-12T21:00:03.583Z,18.80
2023-05-12T21:02:31.590Z,18.80
2023-05-12T21:04:59.530Z,18.70
2023-05-12T21:07:27.496Z,18.70
2023-05-12T21:09:55.353Z,18.60
2023-05-12T21:12:23.430Z,18.70
2023-05-12T21:14:51.422Z,18.70
2023-05-12T21:17:19.381Z,18.80
2023-05-12T21:19:47.410Z,19.00
2023-05-12T21:22:15.486Z,18.60
2023-05-12T21:24:43.602Z,18.70
2023-05-12T21:27:11.504Z,18.60
2023-05-12T21:29:39.424Z,18.60
2023-05-12T21:32:08.701Z,18.50
2023-05-12T21:34:36.735Z,18.50
2023-05-12T21:37:05.096Z,18.50
2023-05-12T21:39:32.990Z,18.40
2023-05-12T21:42:01.026Z,18.80
2023-05-12T21:44:29.202Z,18.50
2023-05-12T21:46:57.984Z,18.50
2023-05-12T21:49:26.161Z,18.40
2023-05-12T21:51:55.839Z,18.50
2023-05-12T21:54:23.646Z,18.30
2023-05-12T21:56:51.925Z,18.40
2023-05-12T21:59:19.968Z,18.40
2023-05-12T22:01:47.758Z,18.10
2023-05-12T22:04:15.910Z,18.20
2023-05-12T22:06:43.774Z,18.20
2023-05-12T22:09:11.721Z,18.10
2023-05-12T22:11:39.661Z,18.00
2023-05-12T22:14:07.805Z,18.00
2023-05-12T22:16:41.722Z,18.10
2023-05-12T22:19:10.606Z,18.00
2023-05-12T22:21:38.741Z,18.00
2023-05-12T22:26:57.221Z,17.90
2023-05-12T22:29:25.536Z,18.00
2023-05-12T22:31:53.447Z,17.80
2023-05-12T22:34:21.237Z,20.80
2023-05-12T22:36:48.927Z,17.90
2023-05-12T22:39:17.019Z,17.90
2023-05-12T22:41:44.796Z,17.80
2023-05-12T22:44:12.517Z,17.90
2023-05-12T22:46:40.305Z,17.80
2023-05-12T22:49:07.990Z,17.90
2023-05-12T22:51:35.734Z,17.70
2023-05-12T22:54:03.612Z,17.80
2023-05-12T22:56:31.308Z,17.70
2023-05-12T22:58:59.003Z,17.70
2023-05-12T23:01:26.731Z,17.60
2023-05-12T23:03:54.691Z,17.60
2023-05-12T23:06:22.725Z,17.60
2023-05-12T23:08:50.448Z,17.50
2023-05-12T23:11:18.280Z,17.50
2023-05-12T23:13:46.977Z,17.50
2023-05-12T23:16:14.838Z,17.50
2023-05-12T23:18:42.701Z,17.40
2023-05-12T23:21:10.574Z,17.40
2023-05-12T23:23:38.284Z,17.50
2023-05-12T23:26:06.231Z,17.50
2023-05-12T23:28:33.920Z,17.30
2023-05-12T23:31:02.619Z,17.40
2023-05-12T23:33:31.080Z,17.30
2023-05-12T23:35:58.912Z,17.30
2023-05-12T23:38:26.584Z,17.20
2023-05-12T23:40:54.314Z,17.20
2023-05-12T23:43:22.049Z,17.20
2023-05-12T23:45:49.982Z,17.10
2023-05-12T23:48:17.668Z,17.10
2023-05-12T23:50:45.369Z,17.10
2023-05-12T23:53:13.052Z,17.10
2023-05-12T23:55:40.823Z,17.00
2023-05-12T23:58:10.058Z,17.00
